Time;durP1;ratioP1;P1;durP2;ratioP2;P2;SDS_P1;SDS_P2;PMS_P1;PMS_P2;Temp;Humidity;BMP_temperature;BMP_pressure;BME280_temperature;BME280_humidity;BME280_pressure;Samples;Min_cycle;Max_cycle;Signal;HPM_P1;HPM_P2
2024/03/18 00:00:19;;;;;;;15.63;14.10;;;12.50;99.90;;;;;;5083460;28;20036;-93
2024/03/18 00:02:47;;;;;;;13.40;12.15;;;11.90;99.90;;;;;;5074190;28;20431;-93
2024/03/18 00:05:15;;;;;;;15.40;13.27;;;12.10;99.90;;;;;;5090730;28;20031;-93
2024/03/18 00:07:41;;;;;;;14.82;13.40;;;11.90;99.90;;;;;;5092115;28;20556;-92
2024/03/18 00:10:12;;;;;;;14.50;13.20;;;12.00;99.90;;;;;;5093923;28;20032;-93
2024/03/18 00:12:45;;;;;;;15.30;14.00;;;11.90;99.90;;;;;;5105725;28;20031;-93
2024/03/18 00:15:15;;;;;;;17.35;15.73;;;11.90;99.90;;;;;;5102429;28;20468;-92
2024/03/18 00:17:43;;;;;;;16.52;14.93;;;12.00;99.90;;;;;;5109823;28;20024;-92
2024/03/18 00:20:11;;;;;;;20.00;15.88;;;12.80;99.90;;;;;;5094758;28;20115;-92
2024/03/18 00:22:45;;;;;;;16.88;15.18;;;11.90;99.90;;;;;;5094237;28;20047;-93
2024/03/18 00:25:11;;;;;;;17.80;15.90;;;12.80;99.90;;;;;;5091103;28;20475;-93
2024/03/18 00:27:37;;;;;;;16.65;15.13;;;11.90;99.90;;;;;;5089925;28;20028;-93
2024/03/18 00:30:04;;;;;;;20.83;16.65;;;12.80;99.90;;;;;;5075649;28;20028;-93
2024/03/18 00:32:30;;;;;;;20.17;17.48;;;11.90;99.90;;;;;;5073711;28;20055;-92
2024/03/18 00:35:09;;;;;;;21.17;17.88;;;12.80;99.90;;;;;;5073930;28;20029;-93
2024/03/18 00:37:36;;;;;;;22.45;18.05;;;11.90;99.90;;;;;;5073686;28;20029;-92
2024/03/18 00:40:01;;;;;;;23.63;19.75;;;12.30;99.90;;;;;;5074875;28;20357;-93
2024/03/18 00:42:27;;;;;;;23.77;18.42;;;11.60;99.90;;;;;;5088427;28;20058;-91
2024/03/18 00:44:54;;;;;;;21.27;18.80;;;12.20;99.90;;;;;;5094791;28;20042;-92
2024/03/18 00:47:20;;;;;;;22.42;20.00;;;12.70;99.90;;;;;;5077034;28;20426;-91
2024/03/18 00:49:45;;;;;;;21.35;18.80;;;11.70;99.90;;;;;;5077938;28;20016;-92
2024/03/18 00:52:11;;;;;;;20.65;18.55;;;11.80;99.90;;;;;;5076935;28;20502;-93
2024/03/18 00:54:37;;;;;;;21.05;18.90;;;12.40;99.90;;;;;;5072916;28;20052;-91
2024/03/18 00:57:03;;;;;;;19.98;17.98;;;11.30;99.90;;;;;;5081233;28;20459;-91
2024/03/18 00:59:28;;;;;;;20.85;18.67;;;11.70;99.90;;;;;;5093256;28;20024;-91
2024/03/18 01:01:54;;;;;;;20.92;18.73;;;11.70;99.90;;;;;;5093069;28;20040;-92
2024/03/18 01:04:20;;;;;;;25.35;19.45;;;11.70;99.90;;;;;;5075555;28;20021;-92
2024/03/18 01:06:51;;;;;;;21.52;19.33;;;12.60;99.90;;;;;;5077142;28;20038;-92
2024/03/18 01:09:17;;;;;;;22.58;19.83;;;12.10;99.90;;;;;;5098221;28;20025;-93
2024/03/18 01:11:46;;;;;;;23.02;20.38;;;11.60;99.90;;;;;;5106804;28;20027;-92
2024/03/18 01:14:11;;;;;;;22.10;19.75;;;12.60;99.90;;;;;;5109437;28;20028;-92
2024/03/18 01:16:47;;;;;;;25.42;20.98;;;11.70;99.90;;;;;;5102330;28;20025;-93
2024/03/18 01:19:12;;;;;;;24.92;20.80;;;12.50;99.90;;;;;;5102658;28;20036;-90
2024/03/18 01:21:38;;;;;;;23.17;20.50;;;12.50;99.90;;;;;;5111133;28;20054;-92
2024/03/18 01:24:04;;;;;;;23.23;20.55;;;11.60;99.90;;;;;;5100239;28;20027;-92
2024/03/18 01:26:29;;;;;;;22.80;20.02;;;11.60;99.90;;;;;;5092580;28;20023;-91
2024/03/18 01:28:55;;;;;;;25.10;21.30;;;12.70;99.90;;;;;;5091745;28;20038;-92
2024/03/18 01:31:23;;;;;;;22.00;19.20;;;12.20;99.90;;;;;;5076584;28;20042;-92
2024/03/18 01:33:48;;;;;;;26.55;21.58;;;11.50;99.90;;;;;;5079831;28;20069;-91
2024/03/18 01:36:14;;;;;;;24.05;21.33;;;11.60;99.90;;;;;;5076715;28;20032;-92
2024/03/18 01:38:40;;;;;;;24.88;21.27;;;12.70;99.90;;;;;;5076720;28;20031;-91
2024/03/18 01:41:13;;;;;;;23.92;20.60;;;11.50;99.90;;;;;;5089524;28;20032;-91
2024/03/18 01:43:39;;;;;;;27.50;21.67;;;11.60;99.90;;;;;;5094281;28;20024;-90
2024/03/18 01:46:26;;;;;;;25.20;20.60;;;11.50;99.90;;;;;;5075973;28;20666;-93
2024/03/18 01:48:52;;;;;;;24.10;21.00;;;12.50;99.90;;;;;;5085074;28;20020;-92
2024/03/18 01:51:18;;;;;;;26.85;22.23;;;11.40;99.90;;;;;;5087049;28;20032;-91
2024/03/18 01:53:44;;;;;;;30.10;21.63;;;12.40;99.90;;;;;;5079178;28;20134;-92
2024/03/18 01:56:10;;;;;;;26.70;22.02;;;11.50;99.90;;;;;;5089349;28;20078;-92
2024/03/18 01:58:38;;;;;;;24.90;21.65;;;11.40;99.90;;;;;;5096672;28;20506;-91
2024/03/18 02:01:06;;;;;;;28.75;22.02;;;11.50;99.90;;;;;;5096506;28;20059;-91
2024/03/18 02:03:31;;;;;;;29.17;23.33;;;12.20;99.90;;;;;;5096323;28;20101;-91
2024/03/18 02:06:06;;;;;;;27.98;22.85;;;11.40;99.90;;;;;;5096378;28;20032;-91
2024/03/18 02:08:33;;;;;;;27.67;22.63;;;11.40;99.90;;;;;;5096676;28;20486;-91
2024/03/18 02:10:59;;;;;;;29.30;22.48;;;11.50;99.90;;;;;;5094241;28;20033;-91
2024/03/18 02:13:25;;;;;;;31.35;23.58;;;11.60;99.90;;;;;;5099084;28;20490;-92
2024/03/18 02:15:51;;;;;;;31.52;24.70;;;11.50;99.90;;;;;;5112764;28;20036;-93
2024/03/18 02:18:22;;;;;;;32.60;24.10;;;12.30;99.90;;;;;;5106647;28;20268;-92
2024/03/18 02:20:48;;;;;;;28.58;23.42;;;12.30;99.90;;;;;;5095927;28;20020;-91
2024/03/18 02:23:14;;;;;;;30.40;23.95;;;11.90;99.90;;;;;;5095390;28;20039;-92
2024/03/18 02:25:41;;;;;;;31.13;25.13;;;12.60;99.90;;;;;;5095775;28;20054;-91
2024/03/18 02:28:10;;;;;;;31.92;24.92;;;11.50;99.90;;;;;;5095751;28;20468;-92
2024/03/18 02:30:36;;;;;;;33.63;25.25;;;12.30;99.90;;;;;;5095456;28;20024;-92
2024/03/18 02:33:02;;;;;;;31.52;24.73;;;12.00;99.90;;;;;;5095324;28;20054;-91
2024/03/18 02:35:28;;;;;;;36.75;25.75;;;11.50;99.90;;;;;;5095951;28;20021;-91
2024/03/18 02:37:53;;;;;;;36.55;26.17;;;12.20;99.90;;;;;;5095650;28;20086;-91
2024/03/18 02:40:19;;;;;;;37.13;27.95;;;12.20;99.90;;;;;;5087045;28;20460;-92
2024/03/18 02:42:45;;;;;;;41.28;27.73;;;11.50;99.90;;;;;;5075836;28;20107;-92
2024/03/18 02:45:12;;;;;;;38.80;27.63;;;11.50;99.90;;;;;;5094923;28;20020;-91
2024/03/18 02:47:39;;;;;;;36.50;27.73;;;11.50;99.90;;;;;;5093253;28;20074;-91
2024/03/18 02:50:06;;;;;;;41.60;28.35;;;11.50;99.90;;;;;;5095705;28;20107;-92
2024/03/18 02:52:32;;;;;;;44.22;28.92;;;11.50;99.90;;;;;;5095022;28;20110;-92
2024/03/18 02:54:58;;;;;;;39.97;28.30;;;11.80;99.90;;;;;;5091423;28;20049;-91
2024/03/18 02:57:24;;;;;;;41.78;28.60;;;12.00;99.90;;;;;;5075833;28;20025;-91
2024/03/18 02:59:53;;;;;;;37.50;27.35;;;11.60;99.90;;;;;;5075535;28;20407;-92
2024/03/18 03:02:18;;;;;;;39.67;27.85;;;11.60;99.90;;;;;;5076086;28;20033;-92
2024/03/18 03:04:44;;;;;;;44.95;28.17;;;12.60;99.90;;;;;;5074777;28;20095;-91
2024/03/18 03:07:10;;;;;;;40.90;27.80;;;11.60;99.90;;;;;;5096954;28;20028;-92
2024/03/18 03:09:42;;;;;;;44.33;28.88;;;11.60;99.90;;;;;;5106498;28;20026;-92
2024/03/18 03:12:11;;;;;;;36.60;26.13;;;11.60;99.90;;;;;;5095376;28;20356;-93
2024/03/18 03:14:36;;;;;;;46.95;26.92;;;12.60;99.90;;;;;;5094788;28;20047;-92
2024/03/18 03:17:02;;;;;;;44.65;26.80;;;11.60;99.90;;;;;;5107935;28;20012;-92
2024/03/18 03:19:28;;;;;;;44.65;28.48;;;11.60;99.90;;;;;;5108943;28;20035;-93
2024/03/18 03:21:53;;;;;;;43.95;26.92;;;11.60;99.90;;;;;;5096010;28;20566;-93
2024/03/18 03:24:19;;;;;;;47.20;28.85;;;11.60;99.90;;;;;;5095127;28;20073;-92
2024/03/18 03:26:54;;;;;;;41.65;26.48;;;11.50;99.90;;;;;;5082189;28;20028;-92
2024/03/18 03:29:19;;;;;;;53.58;27.45;;;11.60;99.90;;;;;;5094499;28;20023;-93
2024/03/18 03:31:45;;;;;;;45.63;29.02;;;12.50;99.90;;;;;;5094829;28;20024;-92
2024/03/18 03:34:11;;;;;;;47.40;28.15;;;11.70;99.90;;;;;;5094621;28;20024;-93
2024/03/18 03:36:40;;;;;;;47.55;29.05;;;11.90;99.90;;;;;;5087653;28;20031;-92
2024/03/18 03:39:05;;;;;;;39.97;25.95;;;11.60;99.90;;;;;;5074325;28;20020;-92
2024/03/18 03:41:35;;;;;;;42.17;26.55;;;11.70;99.90;;;;;;5073278;28;20063;-93
2024/03/18 03:44:00;;;;;;;39.75;25.73;;;11.60;99.90;;;;;;5073941;28;20025;-91
2024/03/18 03:46:26;;;;;;;39.63;26.15;;;11.60;99.90;;;;;;5074304;28;20048;-92
2024/03/18 03:48:52;;;;;;;40.33;26.23;;;12.60;99.90;;;;;;5074362;28;20024;-92
2024/03/18 03:51:20;;;;;;;41.08;25.98;;;12.20;99.90;;;;;;5073793;28;20024;-92
2024/03/18 03:53:46;;;;;;;39.67;25.27;;;12.00;99.90;;;;;;5073862;28;20426;-91
2024/03/18 03:56:11;;;;;;;40.92;26.67;;;12.20;99.90;;;;;;5073886;28;20043;-91
2024/03/18 03:58:40;;;;;;;40.83;25.75;;;11.80;99.90;;;;;;5074598;28;20491;-92
2024/03/18 04:01:05;;;;;;;41.70;26.20;;;12.10;99.90;;;;;;5075729;28;20036;-90
2024/03/18 04:03:31;;;;;;;38.83;26.48;;;11.80;99.90;;;;;;5086940;28;20025;-90
2024/03/18 04:05:56;;;;;;;43.97;25.02;;;12.60;99.90;;;;;;5097823;28;20059;-91
2024/03/18 04:08:23;;;;;;;35.25;23.80;;;11.60;99.90;;;;;;5096977;28;20475;-91
2024/03/18 04:10:50;;;;;;;37.20;25.38;;;11.60;99.90;;;;;;5089487;28;20016;-91
2024/03/18 04:13:15;;;;;;;40.10;27.20;;;11.60;99.90;;;;;;5076681;28;20025;-92
2024/03/18 04:15:42;;;;;;;37.58;26.73;;;11.50;99.90;;;;;;5076834;28;20042;-90
2024/03/18 04:18:08;;;;;;;40.15;25.02;;;11.70;99.90;;;;;;5077145;28;20084;-90
2024/03/18 04:20:34;;;;;;;37.97;24.25;;;11.60;99.90;;;;;;5084319;28;20071;-91
2024/03/18 04:23:00;;;;;;;33.28;22.75;;;11.60;99.90;;;;;;5075388;28;20178;-91
2024/03/18 04:25:26;;;;;;;43.15;25.02;;;11.60;99.90;;;;;;5073800;28;20016;-89
2024/03/18 04:27:52;;;;;;;36.70;23.42;;;11.60;99.90;;;;;;5075705;28;20049;-90
2024/03/18 04:30:19;;;;;;;33.45;23.48;;;11.50;99.90;;;;;;5077863;28;20388;-90
2024/03/18 04:32:48;;;;;;;29.05;21.42;;;11.50;99.90;;;;;;5077549;28;20028;-91
2024/03/18 04:35:14;;;;;;;28.70;21.95;;;12.60;99.90;;;;;;5074643;28;20032;-90
2024/03/18 04:37:45;;;;;;;27.83;19.83;;;11.50;99.90;;;;;;5092988;28;20089;-92
2024/03/18 04:40:15;;;;;;;28.98;18.92;;;11.60;99.90;;;;;;5093527;28;20020;-92
2024/03/18 04:42:41;;;;;;;29.80;19.55;;;11.60;99.90;;;;;;5075424;28;20024;-92
2024/03/18 04:45:08;;;;;;;26.45;17.90;;;11.60;99.90;;;;;;5075112;28;20073;-91
2024/03/18 04:47:40;;;;;;;23.95;16.25;;;11.60;99.90;;;;;;5075259;28;20097;-92
2024/03/18 04:50:12;;;;;;;22.20;16.30;;;11.60;99.90;;;;;;5074566;28;20033;-91
2024/03/18 04:52:38;;;;;;;24.13;16.65;;;11.60;99.90;;;;;;5075469;28;20021;-92
2024/03/18 04:55:05;;;;;;;25.23;16.23;;;11.90;99.90;;;;;;5081544;28;20500;-92
2024/03/18 04:57:32;;;;;;;28.50;17.88;;;11.60;99.90;;;;;;5100632;28;20073;-91
2024/03/18 04:59:57;;;;;;;29.10;16.80;;;11.60;99.90;;;;;;5078404;28;20092;-93
2024/03/18 05:02:23;;;;;;;29.80;18.05;;;12.40;99.90;;;;;;5077401;28;20116;-91
2024/03/18 05:04:48;;;;;;;28.83;17.67;;;11.60;99.90;;;;;;5083833;28;20032;-92
2024/03/18 05:07:15;;;;;;;24.63;16.67;;;11.50;99.90;;;;;;5082804;28;20067;-92
2024/03/18 05:09:43;;;;;;;20.73;16.60;;;12.40;99.90;;;;;;5078427;28;20475;-91
2024/03/18 05:12:09;;;;;;;26.63;16.55;;;11.60;99.90;;;;;;5096327;28;20020;-91
2024/03/18 05:14:35;;;;;;;24.50;15.82;;;11.60;99.90;;;;;;5081831;28;20028;-91
2024/03/18 05:17:00;;;;;;;26.55;15.50;;;12.90;99.90;;;;;;5094938;28;20491;-91
2024/03/18 05:19:26;;;;;;;22.98;15.82;;;11.60;99.90;;;;;;5100955;28;20011;-90
2024/03/18 05:21:51;;;;;;;27.25;16.77;;;11.60;99.90;;;;;;5102430;28;20037;-92
2024/03/18 05:24:17;;;;;;;25.45;16.23;;;11.60;99.90;;;;;;5077669;28;20070;-91
2024/03/18 05:26:42;;;;;;;28.23;15.52;;;12.00;99.90;;;;;;5096150;28;20043;-92
2024/03/18 05:29:08;;;;;;;28.52;15.93;;;11.90;99.90;;;;;;5098247;28;20462;-94
2024/03/18 05:31:33;;;;;;;23.25;15.15;;;12.50;99.90;;;;;;5097322;28;20111;-92
2024/03/18 05:34:01;;;;;;;19.48;15.43;;;11.60;99.90;;;;;;5096749;28;20020;-91
2024/03/18 05:36:29;;;;;;;25.90;16.38;;;11.60;99.90;;;;;;5097345;28;20032;-92
2024/03/18 05:38:55;;;;;;;22.90;14.48;;;11.70;99.90;;;;;;5095526;28;20024;-91
2024/03/18 05:41:21;;;;;;;24.88;15.05;;;11.60;99.90;;;;;;5077699;28;20037;-91
2024/03/18 05:43:47;;;;;;;22.67;15.45;;;11.60;99.90;;;;;;5076312;28;20492;-92
2024/03/18 05:46:14;;;;;;;25.15;15.25;;;12.10;99.90;;;;;;5076586;28;20038;-91
2024/03/18 05:48:40;;;;;;;23.33;14.32;;;11.60;99.90;;;;;;5077676;28;20021;-91
2024/03/18 05:51:06;;;;;;;20.58;14.82;;;11.50;99.90;;;;;;5079046;28;20028;-91
2024/03/18 05:53:38;;;;;;;27.25;14.43;;;12.20;99.90;;;;;;5076878;28;20393;-91
2024/03/18 05:56:05;;;;;;;23.50;14.20;;;10.50;99.90;;;;;;5081034;28;20028;-91
2024/03/18 05:58:30;;;;;;;24.13;14.50;;;11.60;99.90;;;;;;5088714;28;20032;-92
2024/03/18 06:00:56;;;;;;;18.77;14.38;;;11.50;99.90;;;;;;5091056;28;20115;-92
2024/03/18 06:03:21;;;;;;;21.80;14.95;;;11.60;99.90;;;;;;5096274;28;20475;-92
2024/03/18 06:05:47;;;;;;;22.75;14.02;;;11.50;99.90;;;;;;5095481;28;20070;-92
2024/03/18 06:08:13;;;;;;;23.48;15.07;;;11.50;99.90;;;;;;5095926;28;20028;-91
2024/03/18 06:10:38;;;;;;;26.65;16.13;;;11.50;99.90;;;;;;5093649;28;20043;-90
2024/03/18 06:13:04;;;;;;;24.17;14.13;;;11.50;99.90;;;;;;5090629;28;20384;-92
2024/03/18 06:15:50;;;;;;;26.65;15.32;;;11.50;99.90;;;;;;5096115;28;20099;-91
2024/03/18 06:18:16;;;;;;;25.65;15.15;;;11.50;99.90;;;;;;5095855;28;20107;-91
2024/03/18 06:20:50;;;;;;;22.88;14.13;;;11.50;99.90;;;;;;5092649;28;20115;-92
2024/03/18 06:23:18;;;;;;;29.23;14.35;;;11.50;99.90;;;;;;5117197;28;20026;-91
2024/03/18 06:25:59;;;;;;;23.23;14.77;;;11.50;99.90;;;;;;5086908;28;20025;-93
2024/03/18 06:28:32;;;;;;;23.20;13.98;;;11.50;99.90;;;;;;5076575;28;20028;-92
2024/03/18 06:30:58;;;;;;;23.70;14.75;;;11.50;99.90;;;;;;5075834;28;20380;-91
2024/03/18 06:33:25;;;;;;;24.20;14.43;;;11.80;99.90;;;;;;5075706;28;20035;-91
2024/03/18 06:35:55;;;;;;;34.95;15.80;;;11.60;99.90;;;;;;5076489;28;20028;-91
2024/03/18 06:38:21;;;;;;;21.63;15.00;;;11.50;99.90;;;;;;5095508;28;20024;-91
2024/03/18 06:40:48;;;;;;;27.25;15.63;;;11.50;99.90;;;;;;5090334;28;20372;-91
2024/03/18 06:43:15;;;;;;;33.42;16.00;;;12.40;99.90;;;;;;5079871;28;20029;-91
2024/03/18 06:45:41;;;;;;;37.53;15.95;;;12.40;99.90;;;;;;5089138;28;20017;-91
2024/03/18 06:48:06;;;;;;;36.67;17.02;;;12.00;99.90;;;;;;5075190;28;20140;-92
2024/03/18 06:50:35;;;;;;;36.95;17.75;;;11.50;99.90;;;;;;5077913;28;20038;-91
2024/03/18 06:53:01;;;;;;;40.53;19.08;;;11.80;99.90;;;;;;5075027;28;20075;-88
2024/03/18 06:55:29;;;;;;;48.97;19.73;;;12.20;99.90;;;;;;5075575;28;20517;-93
2024/03/18 06:57:54;;;;;;;37.25;18.92;;;11.50;99.90;;;;;;5088860;28;20032;-93
2024/03/18 07:00:23;;;;;;;42.92;20.15;;;11.50;99.90;;;;;;5090391;28;20311;-93
2024/03/18 07:02:52;;;;;;;39.40;18.42;;;11.50;99.90;;;;;;5089475;28;20085;-93
2024/03/18 07:05:22;;;;;;;34.63;19.00;;;11.50;99.90;;;;;;5079021;28;20047;-92
2024/03/18 07:07:48;;;;;;;44.67;19.50;;;12.80;99.90;;;;;;5078536;28;20024;-93
2024/03/18 07:10:14;;;;;;;46.78;19.73;;;12.20;99.90;;;;;;5091668;28;20032;-92
2024/03/18 07:12:40;;;;;;;36.90;19.08;;;11.40;99.90;;;;;;5095966;28;20039;-93
2024/03/18 07:15:07;;;;;;;32.05;17.48;;;11.50;99.90;;;;;;5097277;28;20086;-92
2024/03/18 07:17:33;;;;;;;44.78;20.08;;;11.50;99.90;;;;;;5080409;28;20395;-94
2024/03/18 07:19:59;;;;;;;39.83;19.00;;;12.10;99.90;;;;;;5099539;28;20016;-92
2024/03/18 07:22:25;;;;;;;42.33;20.08;;;12.70;99.90;;;;;;5094350;28;20510;-93
2024/03/18 07:24:51;;;;;;;47.85;20.20;;;12.30;99.90;;;;;;5103795;28;20043;-93
2024/03/18 07:27:17;;;;;;;41.92;20.95;;;11.50;99.90;;;;;;5079185;28;20028;-94
2024/03/18 07:29:42;;;;;;;46.20;20.63;;;12.40;99.90;;;;;;5092032;28;20073;-94
2024/03/18 07:32:08;;;;;;;44.55;21.40;;;11.50;99.90;;;;;;5097039;28;20028;-92
2024/03/18 07:34:35;;;;;;;51.95;20.05;;;11.50;99.90;;;;;;5095382;28;20040;-91
2024/03/18 07:37:00;;;;;;;42.28;21.38;;;11.50;99.90;;;;;;5081592;28;20038;-89
2024/03/18 07:39:26;;;;;;;42.95;19.52;;;11.50;99.90;;;;;;5097185;28;20055;-90
2024/03/18 07:41:55;;;;;;;47.30;22.58;;;11.60;99.90;;;;;;5083150;28;20032;-90
2024/03/18 07:44:24;;;;;;;50.60;21.52;;;11.70;99.90;;;;;;5086229;28;20413;-91
2024/03/18 07:46:50;;;;;;;56.25;23.45;;;12.50;99.90;;;;;;5095534;28;20028;-91
2024/03/18 07:49:15;;;;;;;47.97;22.33;;;11.40;99.90;;;;;;5094881;28;20032;-90
2024/03/18 07:51:56;;;;;;;52.00;21.60;;;12.30;99.90;;;;;;5095245;28;20024;-91
2024/03/18 07:54:22;;;;;;;53.78;22.23;;;12.40;99.90;;;;;;5094073;28;20048;-84
2024/03/18 07:56:48;;;;;;;50.55;21.63;;;11.50;99.90;;;;;;5091294;28;20045;-84
2024/03/18 07:59:35;;;;;;;57.85;23.25;;;11.30;99.90;;;;;;5094261;28;20035;-93
2024/03/18 08:02:01;;;;;;;44.55;20.23;;;11.30;99.90;;;;;;5105046;28;20028;-90
2024/03/18 08:04:27;;;;;;;55.38;22.20;;;11.30;99.90;;;;;;5088662;28;20028;-93
2024/03/18 08:06:56;;;;;;;49.28;22.27;;;12.20;99.90;;;;;;5095548;28;20034;-93
2024/03/18 08:09:21;;;;;;;61.97;21.73;;;12.40;99.90;;;;;;5111191;28;20086;-94
2024/03/18 08:11:48;;;;;;;46.00;21.40;;;12.50;99.90;;;;;;5112986;28;20046;-93
2024/03/18 08:14:14;;;;;;;40.42;20.67;;;12.20;99.90;;;;;;5095679;28;20027;-93
2024/03/18 08:17:01;;;;;;;59.85;23.15;;;11.20;99.90;;;;;;5095273;28;20043;-93
2024/03/18 08:22:18;;;;;;;68.18;22.55;;;11.40;99.90;;;;;;5083712;28;20116;-93
2024/03/18 08:24:52;;;;;;;55.40;22.52;;;12.30;99.90;;;;;;5097334;28;20008;-90
2024/03/18 08:27:18;;;;;;;59.30;23.95;;;12.20;99.90;;;;;;5090400;28;20028;-92
2024/03/18 08:29:44;;;;;;;59.60;25.08;;;12.50;99.90;;;;;;5072450;28;20396;-86
2024/03/18 08:32:09;;;;;;;56.42;24.50;;;11.30;99.90;;;;;;5071389;28;20052;-87
2024/03/18 08:34:37;;;;;;;54.80;25.35;;;11.30;99.90;;;;;;5073406;28;20422;-91
2024/03/18 08:37:03;;;;;;;55.28;24.55;;;11.30;99.90;;;;;;5076895;28;20035;-92
2024/03/18 08:39:28;;;;;;;58.42;25.05;;;11.40;99.90;;;;;;5076416;28;20099;-93
2024/03/18 08:42:15;;;;;;;54.88;25.38;;;12.10;99.90;;;;;;5080764;28;20046;-94
2024/03/18 08:44:40;;;;;;;56.25;24.92;;;11.20;99.90;;;;;;5090855;28;20505;-92
2024/03/18 08:47:08;;;;;;;48.83;24.27;;;12.50;99.90;;;;;;5089519;28;20104;-94
2024/03/18 08:49:34;;;;;;;48.63;24.17;;;12.20;99.90;;;;;;5091320;28;20468;-92
2024/03/18 08:52:00;;;;;;;57.55;24.13;;;12.50;99.90;;;;;;5090635;28;20048;-93
2024/03/18 08:54:40;;;;;;;57.97;23.90;;;12.30;99.90;;;;;;5091420;28;20119;-92
2024/03/18 08:57:06;;;;;;;53.55;25.58;;;12.40;99.90;;;;;;5086592;28;20135;-92
2024/03/18 08:59:32;;;;;;;51.67;24.85;;;11.40;99.90;;;;;;5091705;28;20472;-89
2024/03/18 09:02:13;;;;;;;52.63;24.00;;;11.70;99.90;;;;;;5092983;28;20032;-93
2024/03/18 09:04:40;;;;;;;;;;;11.50;99.90;;;;;;5088152;28;20038;-94
2024/03/18 09:07:14;;;;;;;62.20;22.90;;;12.50;99.90;;;;;;5092476;28;19908;-92
2024/03/18 09:09:40;;;;;;;50.45;23.00;;;11.60;99.90;;;;;;5091918;28;20024;-94
2024/03/18 09:12:06;;;;;;;44.10;22.33;;;11.40;99.90;;;;;;5094719;28;20020;-95
2024/03/18 09:14:31;;;;;;;47.38;20.40;;;11.60;99.90;;;;;;5093526;28;20017;-93
2024/03/18 09:17:01;;;;;;;51.50;21.30;;;12.70;99.90;;;;;;5090538;28;20028;-93
2024/03/18 09:19:30;;;;;;;47.30;20.53;;;12.10;99.90;;;;;;5086891;28;20077;-93
2024/03/18 09:21:56;;;;;;;40.97;18.98;;;11.70;99.90;;;;;;5088341;28;20090;-94
2024/03/18 09:24:22;;;;;;;35.25;14.38;;;12.60;99.90;;;;;;5087976;28;20051;-94
2024/03/18 09:26:49;;;;;;;15.60;6.45;;;12.90;99.90;;;;;;5098933;28;20028;-94
2024/03/18 09:29:15;;;;;;;23.67;5.43;;;11.90;99.90;;;;;;5102472;28;20029;-93
2024/03/18 09:31:43;;;;;;;16.80;4.53;;;13.00;99.90;;;;;;5093861;28;20031;-94
2024/03/18 09:34:09;;;;;;;20.60;5.60;;;12.60;99.90;;;;;;5092008;28;20016;-93
2024/03/18 09:36:35;;;;;;;13.57;5.05;;;12.10;99.90;;;;;;5093247;28;20066;-94
2024/03/18 09:39:01;;;;;;;21.38;5.82;;;13.40;99.90;;;;;;5091560;28;20435;-93
2024/03/18 09:41:27;;;;;;;25.65;5.70;;;12.40;99.90;;;;;;5092287;28;20040;-93
2024/03/18 09:43:52;;;;;;;18.67;5.70;;;12.70;99.90;;;;;;5077991;28;20047;-93
2024/03/18 09:46:21;;;;;;;24.23;5.68;;;13.10;99.90;;;;;;5095540;28;20111;-94
2024/03/18 09:48:47;;;;;;;17.67;4.65;;;12.70;99.90;;;;;;5095614;28;20096;-94
2024/03/18 09:51:17;;;;;;;22.42;5.15;;;12.70;99.90;;;;;;5093280;28;20119;-95
2024/03/18 09:53:46;;;;;;;15.93;4.60;;;13.30;99.90;;;;;;5101387;28;20047;-94
2024/03/18 09:56:15;;;;;;;20.35;5.40;;;12.20;99.90;;;;;;5114496;28;20038;-93
2024/03/18 09:58:53;;;;;;;22.63;5.70;;;12.80;99.90;;;;;;5110999;28;20027;-93
2024/03/18 10:01:20;;;;;;;17.90;5.20;;;12.00;99.90;;;;;;5115110;28;20483;-93
2024/03/18 10:03:53;;;;;;;22.13;5.43;;;12.40;99.90;;;;;;5110346;28;20471;-94
2024/03/18 10:06:39;;;;;;;18.77;5.20;;;12.40;99.90;;;;;;5118110;28;20032;-96
2024/03/18 10:09:06;;;;;;;19.60;6.28;;;12.80;99.90;;;;;;5098265;28;20055;-94
2024/03/18 10:11:31;;;;;;;18.75;5.10;;;12.60;99.90;;;;;;5114635;28;20032;-93
2024/03/18 10:14:14;;;;;;;10.65;4.57;;;13.30;99.90;;;;;;5114633;28;20527;-94
2024/03/18 10:16:40;;;;;;;23.98;5.18;;;12.30;99.90;;;;;;5112466;28;20478;-93
2024/03/18 10:19:21;;;;;;;15.93;4.88;;;12.90;99.90;;;;;;5127919;28;20031;-93
2024/03/18 10:21:47;;;;;;;19.35;3.92;;;12.10;99.90;;;;;;5118087;28;20043;-93
2024/03/18 10:24:16;;;;;;;21.92;5.05;;;13.60;99.90;;;;;;5115116;28;20028;-93
2024/03/18 10:26:45;;;;;;;10.35;3.10;;;12.60;99.90;;;;;;5114726;28;20023;-89
2024/03/18 10:29:11;;;;;;;10.55;3.45;;;12.80;99.90;;;;;;5110748;28;20004;-89
2024/03/18 10:31:40;;;;;;;15.73;3.15;;;12.60;99.90;;;;;;5122754;28;20074;-90
2024/03/18 10:34:06;;;;;;;8.82;2.72;;;12.40;99.90;;;;;;5115784;28;20474;-89
2024/03/18 10:36:35;;;;;;;6.43;1.77;;;12.50;99.90;;;;;;5112649;28;20055;-91
2024/03/18 10:39:07;;;;;;;8.18;1.90;;;13.10;99.90;;;;;;5110485;28;20035;-91
2024/03/18 10:41:39;;;;;;;9.05;2.00;;;12.60;99.90;;;;;;5113494;28;20050;-90
2024/03/18 10:44:20;;;;;;;10.48;2.20;;;12.60;99.90;;;;;;5112628;28;20035;-90
2024/03/18 10:46:47;;;;;;;9.57;1.88;;;12.70;99.90;;;;;;5113675;28;20032;-90
2024/03/18 10:49:20;;;;;;;8.90;2.00;;;12.70;99.90;;;;;;5108918;28;20092;-90
2024/03/18 10:51:46;;;;;;;8.85;2.85;;;12.80;99.90;;;;;;5113640;28;20031;-91
2024/03/18 10:54:18;;;;;;;7.97;1.88;;;12.80;99.90;;;;;;5097643;28;20044;-89
2024/03/18 10:56:47;;;;;;;10.60;2.08;;;12.90;99.90;;;;;;5091369;28;20086;-91
2024/03/18 10:59:18;;;;;;;9.85;1.88;;;12.90;99.90;;;;;;5089269;28;20491;-88
2024/03/18 11:01:44;;;;;;;7.78;1.73;;;12.90;99.90;;;;;;5093529;28;20040;-90
2024/03/18 11:04:25;;;;;;;9.57;1.50;;;12.80;99.90;;;;;;5089941;28;20024;-90
2024/03/18 11:06:52;;;;;;;10.25;1.73;;;12.80;99.90;;;;;;5090638;28;20081;-89
2024/03/18 11:09:20;;;;;;;4.50;1.95;;;12.90;99.90;;;;;;5090917;28;20024;-87
2024/03/18 11:11:47;;;;;;;12.35;1.90;;;12.90;99.90;;;;;;5092738;28;20025;-89
2024/03/18 11:14:27;;;;;;;7.95;2.05;;;12.80;99.90;;;;;;5102669;28;20024;-92
2024/03/18 11:16:55;;;;;;;15.45;2.13;;;12.90;99.90;;;;;;5093519;28;20568;-91
2024/03/18 11:19:27;;;;;;;8.73;2.42;;;12.90;99.90;;;;;;5091197;28;20134;-92
2024/03/18 11:22:01;;;;;;;9.77;1.95;;;12.90;99.90;;;;;;5093933;28;20100;-92
2024/03/18 11:24:31;;;;;;;7.75;1.80;;;13.00;99.90;;;;;;5091516;28;20154;-91
2024/03/18 11:26:58;;;;;;;12.83;2.73;;;13.00;99.90;;;;;;5089894;28;20138;-90
2024/03/18 11:29:39;;;;;;;9.18;1.77;;;12.90;99.90;;;;;;5084815;28;20031;-90
2024/03/18 11:32:09;;;;;;;8.93;2.00;;;13.50;99.90;;;;;;5101769;28;20051;-93
2024/03/18 11:34:36;;;;;;;9.43;2.10;;;13.00;99.90;;;;;;5105562;28;20024;-93
2024/03/18 11:37:04;;;;;;;6.05;1.63;;;13.00;99.90;;;;;;5092648;28;20420;-93
2024/03/18 11:39:30;;;;;;;7.32;1.70;;;13.00;99.90;;;;;;5093004;28;20035;-93
2024/03/18 11:42:00;;;;;;;5.75;1.50;;;13.00;99.90;;;;;;5103741;28;20050;-92
2024/03/18 11:44:25;;;;;;;7.28;2.17;;;13.00;99.90;;;;;;5102625;28;20023;-94
2024/03/18 11:47:04;;;;;;;6.85;1.60;;;13.10;99.90;;;;;;5095983;28;20020;-92
2024/03/18 11:49:29;;;;;;;11.73;2.55;;;13.20;99.90;;;;;;5107177;28;20085;-92
2024/03/18 11:51:57;;;;;;;7.45;1.70;;;13.20;99.90;;;;;;5108842;28;20028;-93
2024/03/18 11:54:22;;;;;;;11.93;2.28;;;13.20;99.90;;;;;;5098558;28;20212;-94
2024/03/18 11:56:49;;;;;;;9.20;2.05;;;13.20;99.90;;;;;;5110986;28;20061;-94
2024/03/18 11:59:15;;;;;;;5.45;1.90;;;13.30;99.90;;;;;;5099597;28;20097;-93
2024/03/18 12:01:41;;;;;;;9.73;1.60;;;13.30;99.90;;;;;;5096142;28;20118;-92
2024/03/18 12:04:07;;;;;;;9.25;2.97;;;13.40;99.90;;;;;;5108269;28;20042;-94
2024/03/18 12:06:37;;;;;;;8.43;2.10;;;13.30;99.90;;;;;;5121699;28;20031;-94
2024/03/18 12:09:04;;;;;;;7.20;1.95;;;13.40;99.90;;;;;;5113246;28;20024;-94
2024/03/18 12:11:31;;;;;;;5.88;1.83;;;13.50;99.90;;;;;;5115692;28;20035;-94
2024/03/18 12:13:57;;;;;;;6.63;1.73;;;13.50;99.90;;;;;;5110763;28;20027;-94
2024/03/18 12:16:23;;;;;;;8.57;1.98;;;13.50;99.90;;;;;;5111767;28;20024;-95
2024/03/18 12:18:48;;;;;;;11.38;1.85;;;13.60;99.90;;;;;;5108221;28;20433;-93
2024/03/18 12:21:35;;;;;;;6.43;1.80;;;14.30;99.90;;;;;;5100322;28;20035;-94
2024/03/18 12:29:56;;;;;;;;;;;13.60;99.90;;;;;;5096018;28;20182;-93
2024/03/18 12:32:23;;;;;;;10.48;2.00;;;14.40;99.90;;;;;;5101487;28;19940;-93
2024/03/18 12:35:13;;;;;;;14.48;2.53;;;13.60;99.90;;;;;;5118862;27;20016;-95
2024/03/18 12:37:46;;;;;;;10.00;1.70;;;13.50;99.90;;;;;;5120876;27;20027;-91
2024/03/18 12:40:15;;;;;;;8.40;1.77;;;13.60;99.90;;;;;;5096375;28;20028;-93
2024/03/18 12:42:56;;;;;;;6.53;1.58;;;13.70;99.90;;;;;;5094254;28;20036;-88